Time;durP1;ratioP1;P1;durP2;ratioP2;P2;SDS_P1;SDS_P2;PMS_P1;PMS_P2;Temp;Humidity;BMP_temperature;BMP_pressure;BME280_temperature;BME280_humidity;BME280_pressure;Samples;Min_cycle;Max_cycle;Signal;HPM_P1;HPM_P2
2023/03/14 00:00:23;;;;;;;;;;;;;;;;;;1871571;28;8108;-64
2023/03/14 00:01:20;;;;;;;;;;;;;;;;;;1867678;28;8038;-64
2023/03/14 00:02:18;;;;;;;;;;;;;;;;;;1870517;28;8161;-64
2023/03/14 00:03:15;;;;;;;;;;;;;;;;;;1869203;28;7075;-62
2023/03/14 00:04:12;;;;;;;;;;;;;;;;;;1865234;29;8108;-64
2023/03/14 00:05:10;;;;;;;;;;;;;;;;;;1869037;29;7324;-64
2023/03/14 00:06:08;;;;;;;;;;;;;;;;;;1867172;29;8024;-66
2023/03/14 00:07:05;;;;;;;;;;;;;;;;;;1859367;29;7997;-63
2023/03/14 00:08:02;;;;;;;;;;;;;;;;;;1860895;29;7042;-64
2023/03/14 00:09:00;;;;;;;;;;;;;;;;;;1869068;28;7022;-62
2023/03/14 00:09:57;;;;;;;;;;;;;;;;;;1869517;29;8102;-63
2023/03/14 00:10:54;;;;;;;;;;;;;;;;;;1873934;28;7042;-65
2023/03/14 00:11:53;;;;;;;;;;;;;;;;;;1874068;28;8040;-64
2023/03/14 00:12:50;;;;;;;;;;;;;;;;;;1870715;28;7010;-64
2023/03/14 00:13:51;;;;;;;;;;;;;;;;;;1869084;28;8220;-66
2023/03/14 00:14:49;;;;;;;;;;;;;;;;;;1866858;29;7460;-65
2023/03/14 00:15:46;;;;;;;;;;;;;;;;;;1867345;29;7130;-64
2023/03/14 00:16:46;;;;;;;;;;;;;;;;;;1872163;29;8995;-64
2023/03/14 00:17:44;;;;;;;;;;;;;;;;;;1867138;29;7059;-62
2023/03/14 00:18:41;;;;;;;;;;;;;;;;;;1873213;29;8106;-63
2023/03/14 00:19:39;;;;;;;;;;;;;;;;;;1868456;29;7105;-63
2023/03/14 00:20:36;;;;;;;;;;;;;;;;;;1875438;28;7999;-64
2023/03/14 00:21:33;;;;;;;;;;;;;;;;;;1875730;28;7042;-64
2023/03/14 00:22:31;;;;;;;;;;;;;;;;;;1873057;28;7939;-63
2023/03/14 00:23:30;;;;;;;;;;;;;;;;;;1876158;28;7074;-64
2023/03/14 00:24:27;;;;;;;;;;;;;;;;;;1875717;28;8274;-63
2023/03/14 00:25:25;;;;;;;;;;;;;;;;;;1875790;28;7010;-65
2023/03/14 00:26:22;;;;;;;;;;;;;;;;;;1876529;28;7148;-63
2023/03/14 00:27:20;;;;;;;;;;;;;;;;;;1876602;28;7117;-65
2023/03/14 00:28:17;;;;;;;;;;;;;;;;;;1876832;28;7010;-63
2023/03/14 00:29:14;;;;;;;;;;;;;;;;;;1877010;28;8181;-64
2023/03/14 00:30:12;;;;;;;;;;;;;;;;;;1877569;28;7021;-62
2023/03/14 00:31:11;;;;;;;;;;;;;;;;;;1877148;28;7046;-63
2023/03/14 00:32:08;;;;;;;;;;;;;;;;;;1876581;28;7925;-65
2023/03/14 00:33:06;;;;;;;;;;;;;;;;;;1875932;28;8012;-64
2023/03/14 00:34:03;;;;;;;;;;;;;;;;;;1876923;28;7006;-64
2023/03/14 00:35:01;;;;;;;;;;;;;;;;;;1876848;28;7362;-65
2023/03/14 00:36:00;;;;;;;;;;;;;;;;;;1875148;28;7038;-64
2023/03/14 00:36:57;;;;;;;;;;;;;;;;;;1876711;28;7074;-63
2023/03/14 00:37:55;;;;;;;;;;;;;;;;;;1876621;28;7022;-63
2023/03/14 00:38:52;;;;;;;;;;;;;;;;;;1876658;28;8112;-65
2023/03/14 00:39:51;;;;;;;;;;;;;;;;;;1875491;28;7060;-65
2023/03/14 00:40:48;;;;;;;;;;;;;;;;;;1875973;28;7110;-64
2023/03/14 00:41:45;;;;;;;;;;;;;;;;;;1876377;28;8092;-62
2023/03/14 00:42:43;;;;;;;;;;;;;;;;;;1875400;28;7149;-63
2023/03/14 00:43:41;;;;;;;;;;;;;;;;;;1876092;28;8056;-64
2023/03/14 00:44:38;;;;;;;;;;;;;;;;;;1877011;28;8032;-64
2023/03/14 00:45:35;;;;;;;;;;;;;;;;;;1876158;28;7006;-63
2023/03/14 00:46:33;;;;;;;;;;;;;;;;;;1876152;28;7042;-65
2023/03/14 00:47:30;;;;;;;;;;;;;;;;;;1877056;28;7372;-63
2023/03/14 00:48:28;;;;;;;;;;;;;;;;;;1875269;28;7397;-64
2023/03/14 00:49:25;;;;;;;;;;;;;;;;;;1876448;28;7093;-65
2023/03/14 00:50:22;;;;;;;;;;;;;;;;;;1876368;28;7133;-65
2023/03/14 00:51:20;;;;;;;;;;;;;;;;;;1876824;28;7140;-65
2023/03/14 00:52:17;;;;;;;;;;;;;;;;;;1876586;28;7049;-63
2023/03/14 00:53:15;;;;;;;;;;;;;;;;;;1876050;28;7006;-64
2023/03/14 00:54:13;;;;;;;;;;;;;;;;;;1876370;28;7289;-63
2023/03/14 00:55:10;;;;;;;;;;;;;;;;;;1877024;28;7443;-64
2023/03/14 00:56:10;;;;;;;;;;;;;;;;;;1874929;28;7054;-65
2023/03/14 00:57:07;;;;;;;;;;;;;;;;;;1875834;28;7046;-63
2023/03/14 00:58:05;;;;;;;;;;;;;;;;;;1876910;28;7112;-62
2023/03/14 00:59:02;;;;;;;;;;;;;;;;;;1876800;28;8067;-65
2023/03/14 00:59:59;;;;;;;;;;;;;;;;;;1875264;28;8056;-64
2023/03/14 01:00:57;;;;;;;;;;;;;;;;;;1876667;28;7353;-64
2023/03/14 01:01:55;;;;;;;;;;;;;;;;;;1876575;28;7401;-63
2023/03/14 01:02:52;;;;;;;;;;;;;;;;;;1876452;28;8033;-63
2023/03/14 01:03:54;;;;;;;;;;;;;;;;;;1876245;28;7018;-63
2023/03/14 01:04:52;;;;;;;;;;;;;;;;;;1876167;28;8046;-63
2023/03/14 01:05:50;;;;;;;;;;;;;;;;;;1876713;28;7006;-65
2023/03/14 01:06:47;;;;;;;;;;;;;;;;;;1876425;28;7052;-64
2023/03/14 01:07:45;;;;;;;;;;;;;;;;;;1876668;28;8000;-65
2023/03/14 01:08:43;;;;;;;;;;;;;;;;;;1876270;28;7073;-65
2023/03/14 01:09:40;;;;;;;;;;;;;;;;;;1876376;28;8054;-62
2023/03/14 01:10:39;;;;;;;;;;;;;;;;;;1876280;28;8189;-65
2023/03/14 01:11:37;;;;;;;;;;;;;;;;;;1876502;28;8032;-65
2023/03/14 01:12:34;;;;;;;;;;;;;;;;;;1868530;29;9249;-65
2023/03/14 01:13:32;;;;;;;;;;;;;;;;;;1869014;29;7352;-64
2023/03/14 01:14:29;;;;;;;;;;;;;;;;;;1874599;28;7155;-66
2023/03/14 01:15:26;;;;;;;;;;;;;;;;;;1876376;28;7101;-63
2023/03/14 01:16:26;;;;;;;;;;;;;;;;;;1876092;28;7026;-64
2023/03/14 01:17:23;;;;;;;;;;;;;;;;;;1876581;28;7014;-65
2023/03/14 01:18:21;;;;;;;;;;;;;;;;;;1876137;28;7194;-65
2023/03/14 01:19:18;;;;;;;;;;;;;;;;;;1869129;29;8092;-62
2023/03/14 01:20:16;;;;;;;;;;;;;;;;;;1868787;29;7142;-65
2023/03/14 01:21:19;;;;;;;;;;;;;;;;;;1875847;28;7014;-65
2023/03/14 01:22:16;;;;;;;;;;;;;;;;;;1875014;28;8028;-64
2023/03/14 01:23:13;;;;;;;;;;;;;;;;;;1875781;28;7009;-64
2023/03/14 01:24:11;;;;;;;;;;;;;;;;;;1876012;28;7025;-64
2023/03/14 01:25:10;;;;;;;;;;;;;;;;;;1876615;28;7006;-62
2023/03/14 01:26:14;;;;;;;;;;;;;;;;;;1876228;28;7046;-63
2023/03/14 01:27:12;;;;;;;;;;;;;;;;;;1876856;28;7221;-63
2023/03/14 01:28:09;;;;;;;;;;;;;;;;;;1875829;28;7010;-63
2023/03/14 01:29:07;;;;;;;;;;;;;;;;;;1876328;28;7039;-65
2023/03/14 01:30:04;;;;;;;;;;;;;;;;;;1875790;28;7349;-63
2023/03/14 01:31:03;;;;;;;;;;;;;;;;;;1875996;28;7093;-64
2023/03/14 01:32:01;;;;;;;;;;;;;;;;;;1874477;28;7006;-65
2023/03/14 01:32:58;;;;;;;;;;;;;;;;;;1874960;28;7998;-63
2023/03/14 01:33:55;;;;;;;;;;;;;;;;;;1875267;28;7006;-62
2023/03/14 01:34:53;;;;;;;;;;;;;;;;;;1875441;28;7041;-63
2023/03/14 01:35:50;;;;;;;;;;;;;;;;;;1874871;28;7191;-64
2023/03/14 01:36:47;;;;;;;;;;;;;;;;;;1874923;28;7313;-66
2023/03/14 01:37:45;;;;;;;;;;;;;;;;;;1875237;28;7403;-63
2023/03/14 01:38:42;;;;;;;;;;;;;;;;;;1875654;28;8044;-65
2023/03/14 01:39:40;;;;;;;;;;;;;;;;;;1874913;28;7006;-64
2023/03/14 01:40:43;;;;;;;;;;;;;;;;;;1875013;28;7073;-64
2023/03/14 01:41:41;;;;;;;;;;;;;;;;;;1875390;28;8028;-64
2023/03/14 01:42:43;;;;;;;;;;;;;;;;;;1875680;28;8015;-63
2023/03/14 01:43:41;;;;;;;;;;;;;;;;;;1875505;28;7113;-65
2023/03/14 01:44:55;;;;;;;;;;;;;;;;;;1875682;28;7138;-65
2023/03/14 01:46:01;;;;;;;;;;;;;;;;;;1874005;28;7093;-62
2023/03/14 01:46:59;;;;;;;;;;;;;;;;;;1875247;28;8230;-63
2023/03/14 01:47:56;;;;;;;;;;;;;;;;;;1874861;28;7010;-64
2023/03/14 01:48:59;;;;;;;;;;;;;;;;;;1874688;28;7027;-65
2023/03/14 01:50:04;;;;;;;;;;;;;;;;;;1873931;28;8044;-65
2023/03/14 01:51:02;;;;;;;;;;;;;;;;;;1874815;28;9101;-63
2023/03/14 01:52:04;;;;;;;;;;;;;;;;;;1866964;29;7085;-62
2023/03/14 01:53:01;;;;;;;;;;;;;;;;;;1867252;29;7002;-65
2023/03/14 01:54:04;;;;;;;;;;;;;;;;;;1874443;28;7006;-65
2023/03/14 01:55:14;;;;;;;;;;;;;;;;;;1876206;28;7105;-63
2023/03/14 01:56:13;;;;;;;;;;;;;;;;;;1868179;29;7047;-62
2023/03/14 01:57:15;;;;;;;;;;;;;;;;;;1868175;29;7038;-64
2023/03/14 01:58:16;;;;;;;;;;;;;;;;;;1874993;28;8031;-65
2023/03/14 01:59:13;;;;;;;;;;;;;;;;;;1874922;28;7006;-65
2023/03/14 02:00:16;;;;;;;;;;;;;;;;;;1874942;28;7062;-64
2023/03/14 02:01:17;;;;;;;;;;;;;;;;;;1875239;28;8076;-63
2023/03/14 02:02:15;;;;;;;;;;;;;;;;;;1874689;28;7329;-63
2023/03/14 02:03:16;;;;;;;;;;;;;;;;;;1875223;28;7006;-64
2023/03/14 02:04:16;;;;;;;;;;;;;;;;;;1874731;28;8037;-65
2023/03/14 02:05:17;;;;;;;;;;;;;;;;;;1874397;28;7948;-62
2023/03/14 02:06:19;;;;;;;;;;;;;;;;;;1876140;28;8048;-62
2023/03/14 02:07:39;;;;;;;;;;;;;;;;;;1875373;28;7010;-64
2023/03/14 02:08:39;;;;;;;;;;;;;;;;;;1874729;28;7043;-63
2023/03/14 02:09:38;;;;;;;;;;;;;;;;;;1875570;28;7309;-62
2023/03/14 02:10:38;;;;;;;;;;;;;;;;;;1875148;28;8019;-63
2023/03/14 02:11:36;;;;;;;;;;;;;;;;;;1874772;28;7025;-65
2023/03/14 02:12:35;;;;;;;;;;;;;;;;;;1874569;28;7043;-65
2023/03/14 02:13:32;;;;;;;;;;;;;;;;;;1874947;28;7006;-66
2023/03/14 02:14:32;;;;;;;;;;;;;;;;;;1874880;28;7132;-67
2023/03/14 02:15:30;;;;;;;;;;;;;;;;;;1874869;28;7038;-65
2023/03/14 02:16:28;;;;;;;;;;;;;;;;;;1875370;28;7002;-65
2023/03/14 02:17:25;;;;;;;;;;;;;;;;;;1874943;28;8129;-63
2023/03/14 02:18:23;;;;;;;;;;;;;;;;;;1875050;28;7006;-65
2023/03/14 02:19:27;;;;;;;;;;;;;;;;;;1874523;28;8108;-65
2023/03/14 02:20:24;;;;;;;;;;;;;;;;;;1874149;28;7031;-65
2023/03/14 02:21:40;;;;;;;;;;;;;;;;;;1874933;28;8109;-66
2023/03/14 02:22:40;;;;;;;;;;;;;;;;;;1874907;28;8403;-65
2023/03/14 02:23:43;;;;;;;;;;;;;;;;;;1867626;29;7127;-64
2023/03/14 02:24:47;;;;;;;;;;;;;;;;;;1867902;29;8084;-64
2023/03/14 02:26:01;;;;;;;;;;;;;;;;;;1867811;29;8002;-66
2023/03/14 02:27:06;;;;;;;;;;;;;;;;;;1866997;29;7014;-67
2023/03/14 02:28:03;;;;;;;;;;;;;;;;;;1868375;29;7059;-66
2023/03/14 02:29:02;;;;;;;;;;;;;;;;;;1868328;29;7220;-64
2023/03/14 02:30:09;;;;;;;;;;;;;;;;;;1867738;29;7112;-64
2023/03/14 02:31:08;;;;;;;;;;;;;;;;;;1868113;29;8021;-65
2023/03/14 02:32:06;;;;;;;;;;;;;;;;;;1867320;29;7509;-65
2023/03/14 02:33:07;;;;;;;;;;;;;;;;;;1867716;29;9345;-64
2023/03/14 02:34:06;;;;;;;;;;;;;;;;;;1868543;29;7013;-65
2023/03/14 02:35:06;;;;;;;;;;;;;;;;;;1867801;29;7010;-66
2023/03/14 02:36:06;;;;;;;;;;;;;;;;;;1868390;29;7151;-64
2023/03/14 02:37:05;;;;;;;;;;;;;;;;;;1866442;29;7131;-66
2023/03/14 02:38:17;;;;;;;;;;;;;;;;;;1867365;29;7327;-64
2023/03/14 02:39:20;;;;;;;;;;;;;;;;;;1867621;29;8019;-65
2023/03/14 02:40:18;;;;;;;;;;;;;;;;;;1867481;29;7980;-65
2023/03/14 02:41:16;;;;;;;;;;;;;;;;;;1867623;29;7093;-66
2023/03/14 02:42:13;;;;;;;;;;;;;;;;;;1867341;29;8023;-65
2023/03/14 02:43:11;;;;;;;;;;;;;;;;;;1867778;29;8024;-64
2023/03/14 02:44:08;;;;;;;;;;;;;;;;;;1867145;29;7129;-63
2023/03/14 02:45:08;;;;;;;;;;;;;;;;;;1868275;29;7002;-66
2023/03/14 02:46:06;;;;;;;;;;;;;;;;;;1867440;29;7073;-64
2023/03/14 02:47:04;;;;;;;;;;;;;;;;;;1867733;29;7121;-65
2023/03/14 02:48:05;;;;;;;;;;;;;;;;;;1867312;29;7006;-64
2023/03/14 02:49:13;;;;;;;;;;;;;;;;;;1866234;29;7070;-65
2023/03/14 02:50:15;;;;;;;;;;;;;;;;;;1867576;29;7110;-65
2023/03/14 02:51:14;;;;;;;;;;;;;;;;;;1867563;29;7171;-64
2023/03/14 02:52:12;;;;;;;;;;;;;;;;;;1859477;29;7006;-66
2023/03/14 02:53:12;;;;;;;;;;;;;;;;;;1860047;29;7094;-63
2023/03/14 02:54:09;;;;;;;;;;;;;;;;;;1867329;29;7101;-66
2023/03/14 02:55:07;;;;;;;;;;;;;;;;;;1867225;29;8100;-65
2023/03/14 02:56:04;;;;;;;;;;;;;;;;;;1867176;29;7078;-65
2023/03/14 02:57:02;;;;;;;;;;;;;;;;;;1867557;29;8978;-66
2023/03/14 02:58:00;;;;;;;;;;;;;;;;;;1867846;29;7453;-66
2023/03/14 02:58:57;;;;;;;;;;;;;;;;;;1867552;29;7063;-64
2023/03/14 02:59:58;;;;;;;;;;;;;;;;;;1867782;29;7018;-66
2023/03/14 03:00:55;;;;;;;;;;;;;;;;;;1866987;29;7074;-65
2023/03/14 03:01:53;;;;;;;;;;;;;;;;;;1867363;29;7125;-65
2023/03/14 03:02:50;;;;;;;;;;;;;;;;;;1867674;29;7054;-64
2023/03/14 03:03:48;;;;;;;;;;;;;;;;;;1867967;29;7067;-64
2023/03/14 03:04:45;;;;;;;;;;;;;;;;;;1867232;29;7141;-65
2023/03/14 03:05:43;;;;;;;;;;;;;;;;;;1866178;29;7051;-63
2023/03/14 03:06:42;;;;;;;;;;;;;;;;;;1867422;29;7005;-65
2023/03/14 03:07:39;;;;;;;;;;;;;;;;;;1866881;29;7046;-63
2023/03/14 03:08:37;;;;;;;;;;;;;;;;;;1867678;29;8036;-63
2023/03/14 03:09:34;;;;;;;;;;;;;;;;;;1867908;29;8003;-64
2023/03/14 03:10:32;;;;;;;;;;;;;;;;;;1866701;29;8015;-65
2023/03/14 03:11:29;;;;;;;;;;;;;;;;;;1867309;29;8134;-65
2023/03/14 03:12:27;;;;;;;;;;;;;;;;;;1867190;29;7010;-64
2023/03/14 03:13:24;;;;;;;;;;;;;;;;;;1866269;29;7107;-65
2023/03/14 03:14:21;;;;;;;;;;;;;;;;;;1867788;29;7090;-63
2023/03/14 03:15:19;;;;;;;;;;;;;;;;;;1867302;29;7002;-64
2023/03/14 03:16:16;;;;;;;;;;;;;;;;;;1867095;29;7006;-63
2023/03/14 03:17:14;;;;;;;;;;;;;;;;;;1867311;29;7006;-65
2023/03/14 03:18:11;;;;;;;;;;;;;;;;;;1867270;29;7010;-65
2023/03/14 03:19:09;;;;;;;;;;;;;;;;;;1867240;29;7122;-66
2023/03/14 03:20:08;;;;;;;;;;;;;;;;;;1867121;29;8069;-64
2023/03/14 03:21:08;;;;;;;;;;;;;;;;;;1867605;29;8046;-65
2023/03/14 03:22:06;;;;;;;;;;;;;;;;;;1867305;29;7043;-65
2023/03/14 03:23:03;;;;;;;;;;;;;;;;;;1868093;29;7117;-65
2023/03/14 03:24:01;;;;;;;;;;;;;;;;;;1867018;29;7154;-64
2023/03/14 03:24:58;;;;;;;;;;;;;;;;;;1871111;28;7322;-64
2023/03/14 03:25:56;;;;;;;;;;;;;;;;;;1872530;28;7089;-62
2023/03/14 03:26:53;;;;;;;;;;;;;;;;;;1873954;28;8042;-65
2023/03/14 03:27:50;;;;;;;;;;;;;;;;;;1861240;29;7132;-63
2023/03/14 03:28:50;;;;;;;;;;;;;;;;;;1865513;29;7010;-64
2023/03/14 03:29:47;;;;;;;;;;;;;;;;;;1866184;29;7006;-65
2023/03/14 03:30:44;;;;;;;;;;;;;;;;;;1870597;28;7034;-63
2023/03/14 03:31:42;;;;;;;;;;;;;;;;;;1869169;28;7006;-64
2023/03/14 03:32:40;;;;;;;;;;;;;;;;;;1871772;28;7086;-63
2023/03/14 03:33:38;;;;;;;;;;;;;;;;;;1866789;29;7034;-64
2023/03/14 03:34:35;;;;;;;;;;;;;;;;;;1864778;29;7075;-64
2023/03/14 03:35:32;;;;;;;;;;;;;;;;;;1868078;28;7109;-64
2023/03/14 03:36:30;;;;;;;;;;;;;;;;;;1871953;28;7302;-66
2023/03/14 03:37:29;;;;;;;;;;;;;;;;;;1869258;28;8352;-63
2023/03/14 03:38:26;;;;;;;;;;;;;;;;;;1871114;28;7289;-65
2023/03/14 03:39:24;;;;;;;;;;;;;;;;;;1872317;28;7006;-66
2023/03/14 03:40:21;;;;;;;;;;;;;;;;;;1867393;28;7003;-64
2023/03/14 03:41:19;;;;;;;;;;;;;;;;;;1873744;28;7030;-65
2023/03/14 03:42:16;;;;;;;;;;;;;;;;;;1867489;28;7265;-64
2023/03/14 03:43:14;;;;;;;;;;;;;;;;;;1867159;28;8138;-66
2023/03/14 03:44:12;;;;;;;;;;;;;;;;;;1869959;28;7062;-64
2023/03/14 03:45:09;;;;;;;;;;;;;;;;;;1869478;28;7998;-65
2023/03/14 03:46:07;;;;;;;;;;;;;;;;;;1874021;28;7326;-64
2023/03/14 03:47:05;;;;;;;;;;;;;;;;;;1870846;28;7034;-64
2023/03/14 03:48:02;;;;;;;;;;;;;;;;;;1873471;28;7055;-64
2023/03/14 03:49:00;;;;;;;;;;;;;;;;;;1871358;28;8472;-63
2023/03/14 03:49:57;;;;;;;;;;;;;;;;;;1873579;28;7014;-64
2023/03/14 03:50:55;;;;;;;;;;;;;;;;;;1868476;28;7046;-64
2023/03/14 03:51:52;;;;;;;;;;;;;;;;;;1872487;28;7014;-64
2023/03/14 03:52:49;;;;;;;;;;;;;;;;;;1869535;28;7142;-64
2023/03/14 03:53:46;;;;;;;;;;;;;;;;;;1871359;28;7104;-65
2023/03/14 03:54:44;;;;;;;;;;;;;;;;;;1861869;29;8995;-64
2023/03/14 03:55:42;;;;;;;;;;;;;;;;;;1859642;29;7034;-65
2023/03/14 03:56:39;;;;;;;;;;;;;;;;;;1860059;29;8025;-66
2023/03/14 03:57:37;;;;;;;;;;;;;;;;;;1861133;29;7013;-65
2023/03/14 03:58:34;;;;;;;;;;;;;;;;;;1872489;28;7003;-63
2023/03/14 03:59:32;;;;;;;;;;;;;;;;;;1873333;28;8123;-65
2023/03/14 04:00:31;;;;;;;;;;;;;;;;;;1873883;28;8179;-63
2023/03/14 04:01:28;;;;;;;;;;;;;;;;;;1873674;28;8007;-63
2023/03/14 04:02:26;;;;;;;;;;;;;;;;;;1874009;28;8048;-65
2023/03/14 04:03:23;;;;;;;;;;;;;;;;;;1872065;28;7142;-66
2023/03/14 04:04:21;;;;;;;;;;;;;;;;;;1872382;28;7002;-64
2023/03/14 04:05:18;;;;;;;;;;;;;;;;;;1867273;29;7034;-64
2023/03/14 04:06:16;;;;;;;;;;;;;;;;;;1872181;28;7074;-63
2023/03/14 04:07:14;;;;;;;;;;;;;;;;;;1867144;28;7010;-65
2023/03/14 04:08:12;;;;;;;;;;;;;;;;;;1871905;28;7010;-65
2023/03/14 04:09:10;;;;;;;;;;;;;;;;;;1868301;29;7006;-64
2023/03/14 04:10:07;;;;;;;;;;;;;;;;;;1870344;29;7013;-64
2023/03/14 04:11:05;;;;;;;;;;;;;;;;;;1868896;29;7540;-63
2023/03/14 04:12:02;;;;;;;;;;;;;;;;;;1868522;28;7002;-64
2023/03/14 04:13:00;;;;;;;;;;;;;;;;;;1868703;28;7131;-64
2023/03/14 04:13:57;;;;;;;;;;;;;;;;;;1870171;28;7121;-63
2023/03/14 04:14:54;;;;;;;;;;;;;;;;;;1865052;29;7188;-65
2023/03/14 04:15:52;;;;;;;;;;;;;;;;;;1859819;29;8024;-66
2023/03/14 04:16:50;;;;;;;;;;;;;;;;;;1868521;28;7006;-65
2023/03/14 04:17:47;;;;;;;;;;;;;;;;;;1874082;29;7079;-64
2023/03/14 04:18:44;;;;;;;;;;;;;;;;;;1867023;29;7086;-64
2023/03/14 04:19:42;;;;;;;;;;;;;;;;;;1868342;29;7010;-65
2023/03/14 04:20:39;;;;;;;;;;;;;;;;;;1866819;29;7102;-65
2023/03/14 04:21:40;;;;;;;;;;;;;;;;;;1872124;29;7505;-66
2023/03/14 04:22:38;;;;;;;;;;;;;;;;;;1874699;29;7173;-64
2023/03/14 04:23:36;;;;;;;;;;;;;;;;;;1874450;29;7088;-64
2023/03/14 04:24:33;;;;;;;;;;;;;;;;;;1873070;29;8073;-66
2023/03/14 04:25:31;;;;;;;;;;;;;;;;;;1874453;29;7006;-65
2023/03/14 04:26:28;;;;;;;;;;;;;;;;;;1872644;29;7014;-65
2023/03/14 04:27:26;;;;;;;;;;;;;;;;;;1867239;29;8021;-64
2023/03/14 04:28:23;;;;;;;;;;;;;;;;;;1874882;29;7438;-64
2023/03/14 04:29:21;;;;;;;;;;;;;;;;;;1865591;29;8242;-64
2023/03/14 04:30:18;;;;;;;;;;;;;;;;;;1867009;29;7010;-64
2023/03/14 04:31:20;;;;;;;;;;;;;;;;;;1874337;29;7006;-65
2023/03/14 04:32:17;;;;;;;;;;;;;;;;;;1870760;29;7149;-63
2023/03/14 04:33:17;;;;;;;;;;;;;;;;;;1870733;29;7098;-65
2023/03/14 04:34:14;;;;;;;;;;;;;;;;;;1866860;29;7997;-65
2023/03/14 04:35:11;;;;;;;;;;;;;;;;;;1871819;29;7187;-63
2023/03/14 04:36:09;;;;;;;;;;;;;;;;;;1866562;29;7136;-64
2023/03/14 04:37:06;;;;;;;;;;;;;;;;;;1867470;29;7010;-65
2023/03/14 04:38:04;;;;;;;;;;;;;;;;;;1867818;29;8049;-64
2023/03/14 04:39:01;;;;;;;;;;;;;;;;;;1867677;29;7006;-64
2023/03/14 04:39:59;;;;;;;;;;;;;;;;;;1874276;29;7060;-63
2023/03/14 04:40:56;;;;;;;;;;;;;;;;;;1869992;29;7033;-65
2023/03/14 04:41:54;;;;;;;;;;;;;;;;;;1874125;29;7032;-65
2023/03/14 04:42:51;;;;;;;;;;;;;;;;;;1872947;29;7006;-64
2023/03/14 04:43:48;;;;;;;;;;;;;;;;;;1872711;29;8101;-63
2023/03/14 04:44:49;;;;;;;;;;;;;;;;;;1874996;29;7010;-64
2023/03/14 04:45:46;;;;;;;;;;;;;;;;;;1861608;29;8938;-65
2023/03/14 04:46:44;;;;;;;;;;;;;;;;;;1861554;29;7089;-64
2023/03/14 04:47:41;;;;;;;;;;;;;;;;;;1868269;29;8056;-63
2023/03/14 04:48:39;;;;;;;;;;;;;;;;;;1874426;29;8019;-65
2023/03/14 04:49:36;;;;;;;;;;;;;;;;;;1874052;29;7010;-64
2023/03/14 04:50:33;;;;;;;;;;;;;;;;;;1872439;29;7009;-65
2023/03/14 04:51:31;;;;;;;;;;;;;;;;;;1867841;29;7096;-63
2023/03/14 04:52:28;;;;;;;;;;;;;;;;;;1873966;29;7007;-65
2023/03/14 04:53:25;;;;;;;;;;;;;;;;;;1870640;29;8018;-63
2023/03/14 04:54:23;;;;;;;;;;;;;;;;;;1873312;29;8030;-64
2023/03/14 04:55:20;;;;;;;;;;;;;;;;;;1870419;29;7097;-64
2023/03/14 04:56:20;;;;;;;;;;;;;;;;;;1874896;29;7002;-66
2023/03/14 04:57:18;;;;;;;;;;;;;;;;;;1866612;29;7033;-65
2023/03/14 04:58:15;;;;;;;;;;;;;;;;;;1871479;29;7991;-64
2023/03/14 04:59:13;;;;;;;;;;;;;;;;;;1869811;29;7014;-64
2023/03/14 05:00:10;;;;;;;;;;;;;;;;;;1870912;29;8417;-63
2023/03/14 05:01:07;;;;;;;;;;;;;;;;;;1874875;29;7317;-66
2023/03/14 05:02:05;;;;;;;;;;;;;;;;;;1873235;29;7145;-64
2023/03/14 05:03:02;;;;;;;;;;;;;;;;;;1874436;29;7010;-64
2023/03/14 05:04:00;;;;;;;;;;;;;;;;;;1868525;29;7992;-66
2023/03/14 05:04:57;;;;;;;;;;;;;;;;;;1871193;29;7006;-63
2023/03/14 05:05:55;;;;;;;;;;;;;;;;;;1868332;29;8028;-63
2023/03/14 05:06:52;;;;;;;;;;;;;;;;;;1873062;28;7047;-64
2023/03/14 05:07:50;;;;;;;;;;;;;;;;;;1874768;28;8132;-64
2023/03/14 05:08:47;;;;;;;;;;;;;;;;;;1876042;28;7006;-65
2023/03/14 05:09:44;;;;;;;;;;;;;;;;;;1870800;28;8044;-65
2023/03/14 05:10:42;;;;;;;;;;;;;;;;;;1868673;29;7002;-64
2023/03/14 05:11:39;;;;;;;;;;;;;;;;;;1872165;28;7006;-65
2023/03/14 05:12:37;;;;;;;;;;;;;;;;;;1870641;28;7105;-64
2023/03/14 05:13:34;;;;;;;;;;;;;;;;;;1874228;28;7068;-65
2023/03/14 05:14:31;;;;;;;;;;;;;;;;;;1868820;29;7096;-65
2023/03/14 05:15:29;;;;;;;;;;;;;;;;;;1870300;28;7130;-64
2023/03/14 05:16:26;;;;;;;;;;;;;;;;;;1870555;28;7050;-63
2023/03/14 05:17:24;;;;;;;;;;;;;;;;;;1868991;29;7006;-66
2023/03/14 05:18:21;;;;;;;;;;;;;;;;;;1868360;29;7129;-64
2023/03/14 05:19:18;;;;;;;;;;;;;;;;;;1869639;29;7082;-64
2023/03/14 05:20:16;;;;;;;;;;;;;;;;;;1868032;29;7010;-66
2023/03/14 05:21:13;;;;;;;;;;;;;;;;;;1871606;28;7322;-64
2023/03/14 05:22:11;;;;;;;;;;;;;;;;;;1874894;28;7135;-64
2023/03/14 05:23:09;;;;;;;;;;;;;;;;;;1872369;28;8237;-66
2023/03/14 05:24:07;;;;;;;;;;;;;;;;;;1875577;28;8210;-67
2023/03/14 05:25:05;;;;;;;;;;;;;;;;;;1876086;28;8032;-66
2023/03/14 05:26:02;;;;;;;;;;;;;;;;;;1875971;28;8004;-63
2023/03/14 05:26:59;;;;;;;;;;;;;;;;;;1875604;28;7010;-64
2023/03/14 05:27:57;;;;;;;;;;;;;;;;;;1875401;28;8091;-66
2023/03/14 05:28:54;;;;;;;;;;;;;;;;;;1875349;28;7058;-64
2023/03/14 05:29:52;;;;;;;;;;;;;;;;;;1875625;28;7010;-66
2023/03/14 05:30:49;;;;;;;;;;;;;;;;;;1875628;28;7046;-63
2023/03/14 05:31:46;;;;;;;;;;;;;;;;;;1875686;28;7078;-63
2023/03/14 05:32:44;;;;;;;;;;;;;;;;;;1875696;28;8037;-65
2023/03/14 05:33:41;;;;;;;;;;;;;;;;;;1876279;28;8026;-65
2023/03/14 05:34:39;;;;;;;;;;;;;;;;;;1875504;28;7067;-66
2023/03/14 05:35:36;;;;;;;;;;;;;;;;;;1875418;28;8021;-65
2023/03/14 05:36:33;;;;;;;;;;;;;;;;;;1875422;28;7022;-67
2023/03/14 05:37:31;;;;;;;;;;;;;;;;;;1875794;28;7006;-64
2023/03/14 05:38:28;;;;;;;;;;;;;;;;;;1875559;28;7073;-64
2023/03/14 05:39:25;;;;;;;;;;;;;;;;;;1876119;28;8028;-64
2023/03/14 05:40:23;;;;;;;;;;;;;;;;;;1875985;28;7006;-65
2023/03/14 05:41:20;;;;;;;;;;;;;;;;;;1874638;28;8103;-63
2023/03/14 05:42:18;;;;;;;;;;;;;;;;;;1875709;28;7133;-66
2023/03/14 05:43:15;;;;;;;;;;;;;;;;;;1875836;28;7006;-65
2023/03/14 05:44:13;;;;;;;;;;;;;;;;;;1875445;28;7093;-65
2023/03/14 05:45:10;;;;;;;;;;;;;;;;;;1875359;28;7026;-66
2023/03/14 05:46:08;;;;;;;;;;;;;;;;;;1876187;28;7006;-65
2023/03/14 05:47:05;;;;;;;;;;;;;;;;;;1875436;28;7002;-65
2023/03/14 05:48:03;;;;;;;;;;;;;;;;;;1875148;28;7208;-64
2023/03/14 05:49:00;;;;;;;;;;;;;;;;;;1875424;28;7130;-65
2023/03/14 05:49:57;;;;;;;;;;;;;;;;;;1875381;28;7074;-65
2023/03/14 05:50:55;;;;;;;;;;;;;;;;;;1875269;28;7120;-66
2023/03/14 05:51:53;;;;;;;;;;;;;;;;;;1867622;29;7225;-64
2023/03/14 05:52:50;;;;;;;;;;;;;;;;;;1867869;29;7046;-65
2023/03/14 05:53:47;;;;;;;;;;;;;;;;;;1874315;28;7113;-65
2023/03/14 05:54:45;;;;;;;;;;;;;;;;;;1875652;28;7973;-66
2023/03/14 05:55:42;;;;;;;;;;;;;;;;;;1875467;28;7078;-66
2023/03/14 05:56:39;;;;;;;;;;;;;;;;;;1875678;28;7305;-64
2023/03/14 05:57:37;;;;;;;;;;;;;;;;;;1875308;28;7089;-64
2023/03/14 05:58:34;;;;;;;;;;;;;;;;;;1875519;28;7125;-65
2023/03/14 05:59:32;;;;;;;;;;;;;;;;;;1876175;28;7006;-65
2023/03/14 06:00:29;;;;;;;;;;;;;;;;;;1875510;28;7002;-63
2023/03/14 06:01:26;;;;;;;;;;;;;;;;;;1867673;29;7321;-64
2023/03/14 06:02:24;;;;;;;;;;;;;;;;;;1867098;29;7093;-67
2023/03/14 06:03:24;;;;;;;;;;;;;;;;;;1873014;28;7050;-66
2023/03/14 06:04:22;;;;;;;;;;;;;;;;;;1874241;28;7093;-65
2023/03/14 06:05:19;;;;;;;;;;;;;;;;;;1875625;28;7006;-64
2023/03/14 06:06:16;;;;;;;;;;;;;;;;;;1867596;29;7002;-65
2023/03/14 06:07:14;;;;;;;;;;;;;;;;;;1868228;29;8128;-65
2023/03/14 06:08:11;;;;;;;;;;;;;;;;;;1874393;28;7127;-64
2023/03/14 06:09:08;;;;;;;;;;;;;;;;;;1867507;29;7802;-65
2023/03/14 06:10:07;;;;;;;;;;;;;;;;;;1867434;29;8032;-65
2023/03/14 06:11:04;;;;;;;;;;;;;;;;;;1874275;28;7006;-64
2023/03/14 06:12:03;;;;;;;;;;;;;;;;;;1875604;28;7022;-66
2023/03/14 06:13:00;;;;;;;;;;;;;;;;;;1876078;28;7002;-63
2023/03/14 06:13:57;;;;;;;;;;;;;;;;;;1874726;28;7018;-64
2023/03/14 06:14:55;;;;;;;;;;;;;;;;;;1874164;28;8274;-66
2023/03/14 06:15:52;;;;;;;;;;;;;;;;;;1875481;28;7045;-65
2023/03/14 06:16:50;;;;;;;;;;;;;;;;;;1874966;28;7131;-65
2023/03/14 06:17:47;;;;;;;;;;;;;;;;;;1875252;28;8194;-65
2023/03/14 06:18:46;;;;;;;;;;;;;;;;;;1874917;28;8344;-67
2023/03/14 06:19:43;;;;;;;;;;;;;;;;;;1875937;28;7374;-65
2023/03/14 06:20:41;;;;;;;;;;;;;;;;;;1875231;28;8444;-64
2023/03/14 06:21:38;;;;;;;;;;;;;;;;;;1875470;28;7002;-64
2023/03/14 06:22:36;;;;;;;;;;;;;;;;;;1875362;28;7006;-66
2023/03/14 06:23:33;;;;;;;;;;;;;;;;;;1869979;28;7079;-66
2023/03/14 06:24:30;;;;;;;;;;;;;;;;;;1868818;28;7002;-64
2023/03/14 06:25:28;;;;;;;;;;;;;;;;;;1873393;28;7010;-65
2023/03/14 06:26:25;;;;;;;;;;;;;;;;;;1868533;28;7006;-66
2023/03/14 06:27:23;;;;;;;;;;;;;;;;;;1871509;28;7006;-64
2023/03/14 06:28:20;;;;;;;;;;;;;;;;;;1871347;28;7204;-65
2023/03/14 06:29:17;;;;;;;;;;;;;;;;;;1868932;28;7002;-66
2023/03/14 06:30:15;;;;;;;;;;;;;;;;;;1868887;28;7022;-64
2023/03/14 06:31:13;;;;;;;;;;;;;;;;;;1868853;29;7010;-65
2023/03/14 06:32:10;;;;;;;;;;;;;;;;;;1868469;29;8361;-66
2023/03/14 06:33:08;;;;;;;;;;;;;;;;;;1871875;28;7097;-64
2023/03/14 06:34:05;;;;;;;;;;;;;;;;;;1870409;28;9807;-65
2023/03/14 06:35:02;;;;;;;;;;;;;;;;;;1868197;29;7006;-65
2023/03/14 06:36:00;;;;;;;;;;;;;;;;;;1871008;28;7041;-64
2023/03/14 06:36:57;;;;;;;;;;;;;;;;;;1873200;28;7006;-64
2023/03/14 06:37:55;;;;;;;;;;;;;;;;;;1868547;28;7035;-63
2023/03/14 06:38:52;;;;;;;;;;;;;;;;;;1875263;28;7014;-65
2023/03/14 06:39:49;;;;;;;;;;;;;;;;;;1875721;28;8027;-65
2023/03/14 06:40:47;;;;;;;;;;;;;;;;;;1871367;28;7958;-65
2023/03/14 06:41:44;;;;;;;;;;;;;;;;;;1871786;28;7144;-64
2023/03/14 06:42:41;;;;;;;;;;;;;;;;;;1873750;28;8004;-63
2023/03/14 06:43:39;;;;;;;;;;;;;;;;;;1870084;28;7006;-65
2023/03/14 06:44:36;;;;;;;;;;;;;;;;;;1871877;28;7006;-65